createdAt,value
2022-12-04T00:00:27.666Z,30.40
2022-12-04T00:05:30.234Z,31.48
2022-12-04T00:10:32.877Z,37.22
2022-12-04T00:15:35.371Z,32.22
2022-12-04T00:20:41.565Z,27.40
2022-12-04T00:25:48.646Z,30.35
2022-12-04T00:30:51.210Z,33.03
2022-12-04T00:36:01.871Z,32.50
2022-12-04T00:41:05.129Z,30.80
2022-12-04T00:46:07.679Z,33.30
2022-12-04T00:51:13.258Z,34.42
2022-12-04T00:56:25.105Z,23.88
2022-12-04T01:01:28.643Z,26.48
2022-12-04T01:06:33.457Z,29.35
2022-12-04T01:11:36.914Z,37.80
2022-12-04T01:16:40.241Z,30.15
2022-12-04T01:21:43.269Z,34.85
2022-12-04T01:26:45.839Z,25.95
2022-12-04T01:31:48.619Z,33.08
2022-12-04T01:36:51.988Z,34.95
2022-12-04T01:41:54.621Z,38.03
2022-12-04T01:46:58.985Z,32.45
2022-12-04T01:52:07.049Z,31.00
2022-12-04T01:57:19.792Z,29.50
2022-12-04T02:02:30.566Z,36.58
2022-12-04T02:07:33.502Z,36.20
2022-12-04T02:12:48.041Z,27.55
2022-12-04T02:18:27.467Z,31.10
2022-12-04T02:23:46.869Z,30.67
2022-12-04T02:28:53.727Z,34.17
2022-12-04T02:34:01.853Z,33.63
2022-12-04T02:39:05.572Z,34.78
2022-12-04T02:44:22.365Z,31.98
2022-12-04T02:49:46.696Z,33.78
2022-12-04T02:54:57.445Z,31.13
2022-12-04T03:00:01.186Z,33.38
2022-12-04T03:05:16.200Z,34.28
2022-12-04T03:10:28.693Z,35.17
2022-12-04T03:15:58.221Z,35.13
2022-12-04T03:21:04.282Z,30.65
2022-12-04T03:26:30.475Z,27.00
2022-12-04T03:31:43.217Z,38.20
2022-12-04T03:37:02.785Z,33.38
2022-12-04T03:42:11.325Z,37.53
2022-12-04T03:47:17.742Z,35.60
2022-12-04T03:52:26.137Z,35.58
2022-12-04T03:57:31.527Z,34.47
2022-12-04T04:02:38.236Z,36.50
2022-12-04T04:07:46.831Z,36.55
2022-12-04T04:13:17.554Z,28.50
2022-12-04T04:18:39.031Z,36.40
2022-12-04T04:24:07.568Z,35.25
2022-12-04T04:29:10.740Z,33.08
2022-12-04T04:34:27.789Z,33.65
2022-12-04T04:39:53.768Z,32.45
2022-12-04T04:45:00.412Z,34.05
2022-12-04T04:50:05.647Z,28.30
2022-12-04T04:55:08.817Z,35.25
2022-12-04T05:00:16.770Z,35.15
2022-12-04T05:05:19.367Z,37.53
2022-12-04T05:10:21.855Z,34.38
2022-12-04T05:15:24.313Z,25.63
2022-12-04T05:20:26.912Z,30.35
2022-12-04T05:25:29.386Z,37.28
2022-12-04T05:30:32.104Z,39.80
2022-12-04T05:35:34.634Z,32.22
2022-12-04T05:40:37.143Z,36.28
2022-12-04T05:45:39.657Z,32.22
2022-12-04T05:50:42.242Z,37.72
2022-12-04T05:55:44.750Z,39.00
2022-12-04T06:00:47.361Z,26.83
2022-12-04T06:05:49.821Z,34.10
2022-12-04T06:10:52.303Z,40.63
2022-12-04T06:15:54.854Z,38.70
2022-12-04T06:20:58.810Z,34.78
2022-12-04T06:26:08.803Z,33.60
2022-12-04T06:31:13.514Z,33.28
2022-12-04T06:36:18.911Z,35.33
2022-12-04T06:41:22.146Z,34.80
2022-12-04T06:46:27.207Z,35.13
2022-12-04T06:51:35.408Z,37.05
2022-12-04T06:56:37.920Z,40.10
2022-12-04T07:01:40.534Z,38.05
2022-12-04T07:06:43.143Z,34.10
2022-12-04T07:11:46.026Z,31.67
2022-12-04T07:16:48.586Z,39.55
2022-12-04T07:21:51.142Z,36.40
2022-12-04T07:26:53.651Z,36.63
2022-12-04T07:31:56.324Z,31.45
2022-12-04T07:36:58.974Z,34.90
2022-12-04T07:42:01.573Z,37.88
2022-12-04T07:47:04.714Z,34.00
2022-12-04T07:52:07.794Z,37.58
2022-12-04T07:57:10.249Z,32.67
2022-12-04T08:02:13.747Z,42.83
2022-12-04T08:07:16.250Z,43.08
2022-12-04T08:12:18.973Z,37.78
2022-12-04T08:17:21.544Z,37.10
2022-12-04T08:22:25.397Z,38.83
2022-12-04T08:27:28.107Z,26.77
2022-12-04T08:32:30.616Z,29.45
2022-12-04T08:37:33.141Z,26.80
2022-12-04T08:42:35.682Z,38.22
2022-12-04T08:47:38.185Z,35.40
2022-12-04T08:52:40.812Z,25.42
2022-12-04T08:57:43.312Z,34.15
2022-12-04T09:02:49.660Z,38.15
2022-12-04T09:07:52.206Z,32.45
2022-12-04T09:12:54.770Z,36.65
2022-12-04T09:17:57.269Z,34.08
2022-12-04T09:23:04.736Z,32.85
2022-12-04T09:28:07.797Z,29.33
2022-12-04T09:33:10.432Z,30.05
2022-12-04T09:38:12.918Z,38.13
2022-12-04T09:43:51.198Z,26.85
2022-12-04T09:48:54.810Z,29.23
2022-12-04T09:54:05.750Z,19.10
2022-12-04T09:59:22.469Z,32.35
2022-12-04T10:04:26.399Z,27.63
2022-12-04T10:09:40.024Z,18.05
2022-12-04T10:14:42.604Z,17.98
2022-12-04T10:20:21.408Z,27.70
2022-12-04T10:25:25.342Z,21.95
2022-12-04T10:30:30.517Z,20.20
2022-12-04T10:35:34.522Z,21.17
2022-12-04T10:40:44.239Z,24.27
2022-12-04T10:45:46.892Z,22.13
2022-12-04T10:50:49.465Z,23.00
2022-12-04T10:55:52.070Z,23.52
2022-12-04T11:01:05.574Z,19.20
2022-12-04T11:06:10.099Z,21.20
2022-12-04T11:11:14.208Z,23.73
2022-12-04T11:16:37.674Z,22.10
2022-12-04T11:21:40.281Z,18.93
2022-12-04T11:26:42.919Z,19.02
2022-12-04T11:31:53.265Z,22.25
2022-12-04T11:36:57.292Z,19.35
2022-12-04T11:42:18.323Z,19.73
2022-12-04T11:47:22.952Z,19.52
2022-12-04T11:52:31.530Z,19.30
2022-12-04T11:57:42.950Z,14.30
2022-12-04T12:03:04.166Z,17.30
2022-12-04T12:08:51.652Z,19.65
2022-12-04T12:13:59.917Z,17.92
2022-12-04T12:19:30.046Z,17.55
2022-12-04T12:24:57.189Z,17.70
2022-12-04T12:30:10.438Z,13.23
2022-12-04T12:35:21.854Z,19.50
2022-12-04T12:41:01.879Z,19.90
2022-12-04T12:46:31.727Z,19.38
2022-12-04T12:51:39.905Z,20.25
2022-12-04T12:56:49.912Z,20.05
2022-12-04T13:07:50.803Z,21.77
2022-12-04T13:13:03.636Z,20.83
2022-12-04T13:18:08.318Z,20.17
2022-12-04T13:23:19.880Z,21.83
2022-12-04T13:28:43.578Z,21.50
2022-12-04T13:34:08.763Z,21.40
2022-12-04T13:39:48.906Z,22.67
2022-12-04T13:44:59.603Z,23.05
2022-12-04T13:50:20.879Z,21.70
2022-12-04T13:55:28.548Z,22.48
2022-12-04T14:00:34.867Z,27.77
2022-12-04T14:05:42.901Z,26.30
2022-12-04T14:10:56.939Z,30.00
2022-12-04T14:16:18.361Z,28.70
2022-12-04T14:21:21.409Z,27.90
2022-12-04T14:26:37.330Z,25.98
2022-12-04T14:31:48.911Z,23.85
2022-12-04T14:36:53.400Z,27.40
2022-12-04T14:42:27.569Z,26.35
2022-12-04T14:47:40.175Z,21.23
2022-12-04T14:52:59.347Z,30.40
2022-12-04T14:58:31.962Z,34.38
2022-12-04T15:03:37.313Z,31.08
2022-12-04T15:08:50.660Z,29.70
2022-12-04T15:13:53.318Z,25.50
2022-12-04T15:18:56.937Z,28.13
2022-12-04T15:23:59.716Z,35.75
2022-12-04T15:29:03.968Z,30.13
2022-12-04T15:34:12.986Z,26.00
2022-12-04T15:39:27.904Z,22.33
2022-12-04T15:44:33.293Z,26.60
2022-12-04T15:49:35.907Z,25.13
2022-12-04T15:54:43.073Z,31.48
2022-12-04T15:59:50.379Z,30.58
2022-12-04T16:04:52.874Z,27.08
2022-12-04T16:10:04.022Z,32.45
2022-12-04T16:15:07.697Z,29.15
2022-12-04T16:20:11.517Z,32.17
2022-12-04T16:25:14.231Z,26.80
2022-12-04T16:30:17.074Z,31.88
2022-12-04T16:35:20.191Z,30.75
2022-12-04T16:40:23.100Z,26.83
2022-12-04T16:45:35.516Z,34.33
2022-12-04T16:50:38.363Z,27.42
2022-12-04T16:55:40.985Z,25.27
2022-12-04T17:00:45.150Z,25.52
2022-12-04T17:05:47.742Z,33.00
2022-12-04T17:10:51.091Z,30.02
2022-12-04T17:15:54.035Z,30.10
2022-12-04T17:20:56.746Z,30.50
2022-12-04T17:26:08.746Z,28.10
2022-12-04T17:31:25.512Z,21.65
2022-12-04T17:36:30.499Z,24.85
2022-12-04T17:41:33.091Z,26.50
2022-12-04T17:46:35.843Z,21.67
2022-12-04T17:51:38.552Z,33.30
2022-12-04T17:56:46.106Z,28.75
2022-12-04T18:01:50.866Z,29.00
2022-12-04T18:06:53.367Z,31.83
2022-12-04T18:12:01.575Z,21.80
2022-12-04T18:17:04.667Z,38.33
2022-12-04T18:22:07.359Z,35.97
2022-12-04T18:27:11.048Z,32.85
2022-12-04T18:32:13.809Z,27.77
2022-12-04T18:37:18.363Z,32.20
2022-12-04T18:42:20.933Z,29.67
2022-12-04T18:47:26.637Z,35.42
2022-12-04T18:52:29.287Z,36.67
2022-12-04T18:57:31.840Z,33.55
2022-12-04T19:02:34.398Z,40.45
2022-12-04T19:07:37.003Z,39.13
2022-12-04T19:12:40.343Z,35.70
2022-12-04T19:17:43.223Z,36.80
2022-12-04T19:22:45.804Z,37.10
2022-12-04T19:27:48.339Z,41.08
2022-12-04T19:32:51.102Z,39.03
2022-12-04T19:37:54.977Z,43.60
2022-12-04T19:43:02.588Z,37.50
2022-12-04T19:48:05.813Z,38.83
2022-12-04T19:53:08.380Z,34.15
2022-12-04T19:58:10.990Z,37.17
2022-12-04T20:03:13.789Z,34.20
2022-12-04T20:08:17.514Z,43.45
2022-12-04T20:13:20.251Z,38.58
2022-12-04T20:18:22.826Z,41.65
2022-12-04T20:23:25.742Z,43.35
2022-12-04T20:28:28.440Z,42.22
2022-12-04T20:33:31.001Z,34.92
2022-12-04T20:38:33.597Z,37.15
2022-12-04T20:43:37.132Z,41.58
2022-12-04T20:48:39.719Z,38.65
2022-12-04T20:53:42.712Z,38.08
2022-12-04T20:58:45.791Z,44.20
2022-12-04T21:03:48.439Z,41.10
2022-12-04T21:08:56.171Z,37.13
2022-12-04T21:14:18.676Z,37.03
2022-12-04T21:19:22.440Z,40.35
2022-12-04T21:24:28.869Z,39.53
2022-12-04T21:29:31.396Z,35.65
2022-12-04T21:34:34.118Z,39.83
2022-12-04T21:39:37.068Z,37.95
2022-12-04T21:44:39.998Z,44.65
2022-12-04T21:49:43.036Z,38.55
2022-12-04T21:54:49.368Z,44.72
2022-12-04T21:59:54.068Z,40.47
2022-12-04T22:09:59.647Z,41.47
2022-12-04T22:15:04.417Z,41.30
2022-12-04T22:20:09.402Z,39.83
2022-12-04T22:25:14.192Z,39.47
2022-12-04T22:30:16.751Z,44.38
2022-12-04T22:35:19.667Z,34.15
2022-12-04T22:40:22.183Z,37.78
2022-12-04T22:45:24.931Z,38.90
2022-12-04T22:50:27.836Z,38.95
2022-12-04T22:55:31.644Z,40.92
2022-12-04T23:00:34.137Z,34.85
2022-12-04T23:05:36.803Z,33.63
2022-12-04T23:10:39.303Z,36.45
2022-12-04T23:15:42.813Z,34.03
2022-12-04T23:20:45.581Z,31.75
2022-12-04T23:25:48.211Z,26.23
2022-12-04T23:30:50.761Z,34.63
2022-12-04T23:35:54.340Z,35.55
2022-12-04T23:41:15.144Z,31.10
2022-12-04T23:46:23.549Z,33.85
2022-12-04T23:51:26.453Z,31.15
2022-12-04T23:56:29.258Z,31.85
